Time;durP1;ratioP1;P1;durP2;ratioP2;P2;SDS_P1;SDS_P2;PMS_P1;PMS_P2;Temp;Humidity;BMP_temperature;BMP_pressure;BME280_temperature;BME280_humidity;BME280_pressure;Samples;Min_cycle;Max_cycle;Signal;HPM_P1;HPM_P2
2024/03/16 00:00:14;;;;;;;12.40;7.97;;;;;;;9.52;76.11;92667.41;2071753;69;20124;-78
2024/03/16 00:02:39;;;;;;;10.02;4.85;;;;;;;9.64;75.32;92671.72;2071650;69;20257;-78
2024/03/16 00:05:06;;;;;;;5.65;3.95;;;;;;;9.77;74.80;92669.69;2071932;69;20140;-78
2024/03/16 00:07:33;;;;;;;6.20;3.88;;;;;;;9.50;76.57;92667.28;2071771;69;20144;-77
2024/03/16 00:13:46;;;;;;;3.38;1.80;;;;;;;9.80;74.81;92662.84;2071245;69;20187;-77
2024/03/16 00:16:12;;;;;;;2.90;1.90;;;;;;;9.86;74.58;92657.63;2071503;69;20251;-78
2024/03/16 00:18:37;;;;;;;4.18;2.30;;;;;;;9.72;75.31;92662.34;2071291;69;20144;-78
2024/03/16 00:21:04;;;;;;;6.32;2.70;;;;;;;9.37;75.97;92666.50;2068555;69;20155;-77
2024/03/16 00:23:29;;;;;;;5.25;2.70;;;;;;;9.48;75.52;92662.25;2071590;69;20154;-77
2024/03/16 00:25:57;;;;;;;6.00;2.85;;;;;;;9.59;74.38;92658.75;2071449;69;20140;-76
2024/03/16 00:28:22;;;;;;;5.93;3.05;;;;;;;9.74;74.75;92676.50;2071187;69;20136;-77
2024/03/16 00:30:48;;;;;;;4.00;2.70;;;;;;;9.78;74.66;92683.13;2071374;69;20141;-76
2024/03/16 00:33:14;;;;;;;6.13;2.80;;;;;;;9.74;73.88;92682.13;2071533;69;20482;-76
2024/03/16 00:35:40;;;;;;;6.40;2.67;;;;;;;9.62;75.13;92685.66;2068206;69;20176;-77
2024/03/16 00:38:06;;;;;;;5.60;2.50;;;;;;;9.66;74.65;92677.47;2071398;69;20340;-77
2024/03/16 00:40:31;;;;;;;3.72;2.35;;;;;;;9.84;73.83;92677.16;2071546;69;20149;-77
2024/03/16 00:42:57;;;;;;;5.03;2.63;;;;;;;9.70;73.72;92659.38;2071518;69;20132;-77
2024/03/16 00:45:23;;;;;;;6.07;2.83;;;;;;;9.49;75.38;92668.63;2071539;69;20505;-76
2024/03/16 00:51:36;;;;;;;4.97;2.80;;;;;;;9.62;74.72;92662.41;2071495;69;20155;-76
2024/03/16 00:54:02;;;;;;;4.22;2.85;;;;;;;9.61;74.43;92658.13;2071655;69;20156;-78
2024/03/16 00:56:28;;;;;;;4.60;2.30;;;;;;;9.62;74.55;92662.41;2071514;69;20152;-78
2024/03/16 00:58:53;;;;;;;4.93;2.88;;;;;;;9.36;75.61;92658.66;2071514;69;20154;-78
2024/03/16 01:01:20;;;;;;;5.75;2.95;;;;;;;9.38;75.58;92653.91;2067935;69;20147;-78
2024/03/16 01:03:45;;;;;;;6.35;2.85;;;;;;;9.62;75.34;92671.59;2071402;69;20271;-77
2024/03/16 01:06:11;;;;;;;5.35;3.08;;;;;;;9.63;74.50;92681.50;2071301;69;20240;-79
2024/03/16 01:08:37;;;;;;;6.70;2.88;;;;;;;9.64;74.00;92676.63;2071457;69;20159;-78
2024/03/16 01:11:03;;;;;;;4.90;2.95;;;;;;;9.15;77.42;92667.84;2071617;69;20187;-78
2024/03/16 01:13:28;;;;;;;5.43;3.10;;;;;;;9.43;76.10;92677.38;2068140;69;20235;-81
2024/03/16 01:15:54;;;;;;;4.32;2.83;;;;;;;9.51;75.67;92675.09;2071518;69;20133;-80
2024/03/16 01:18:20;;;;;;;8.38;2.88;;;;;;;9.40;74.99;92684.94;2071240;69;20244;-80
2024/03/16 01:20:46;;;;;;;5.68;3.05;;;;;;;9.49;75.94;92677.06;2071560;69;20164;-81
2024/03/16 01:23:13;;;;;;;4.35;2.70;;;;;;;9.37;75.84;92677.00;2071445;69;20151;-80
2024/03/16 01:25:40;;;;;;;4.75;2.70;;;;;;;9.11;76.60;92678.81;2071501;69;20171;-79
2024/03/16 01:28:06;;;;;;;6.22;2.63;;;;;;;9.26;76.27;92678.41;2071522;69;20206;-80
2024/03/16 01:30:32;;;;;;;4.07;2.65;;;;;;;9.26;76.15;92678.41;2071667;69;20255;-80
2024/03/16 01:32:58;;;;;;;5.80;3.63;;;;;;;8.91;78.14;92675.41;2071363;69;20152;-78
2024/03/16 01:35:23;;;;;;;12.52;7.53;;;;;;;9.08;77.40;92674.41;2071450;69;20585;-80
2024/03/16 01:41:36;;;;;;;11.23;7.88;;;;;;;9.33;75.91;92668.31;2071325;69;20582;-80
2024/03/16 01:44:12;;;;;;;7.90;5.47;;;;;;;9.30;75.56;92666.69;2071480;69;20160;-79
2024/03/16 01:46:41;;;;;;;9.40;5.95;;;;;;;9.42;75.26;92673.84;2068064;69;20156;-79
2024/03/16 01:49:08;;;;;;;8.25;5.15;;;;;;;9.39;75.04;92672.25;2071453;69;20147;-78
2024/03/16 01:51:40;;;;;;;7.32;5.20;;;;;;;9.44;74.79;92670.44;2071239;69;20140;-79
2024/03/16 01:54:06;;;;;;;7.90;4.32;;;;;;;9.12;76.41;92675.41;2068147;69;20132;-79
2024/03/16 01:56:32;;;;;;;5.20;3.63;;;;;;;9.07;76.15;92670.13;2071321;69;20181;-79
2024/03/16 01:58:58;;;;;;;5.05;3.85;;;;;;;8.95;76.05;92639.19;2071207;69;20213;-79
2024/03/16 02:01:25;;;;;;;8.05;3.80;;;;;;;9.33;75.39;92683.06;2071307;69;20217;-79
2024/03/16 02:03:54;;;;;;;8.38;4.20;;;;;;;9.34;75.68;92689.44;2071189;69;20156;-78
2024/03/16 02:06:24;;;;;;;5.90;3.60;;;;;;;9.35;75.51;92688.13;2071352;69;20144;-78
2024/03/16 02:08:51;;;;;;;6.53;3.53;;;;;;;9.18;75.39;92688.38;2069375;69;20140;-78
2024/03/16 02:11:17;;;;;;;5.18;3.40;;;;;;;9.31;75.28;92696.28;2071782;69;20143;-77
2024/03/16 02:13:42;;;;;;;5.70;3.65;;;;;;;8.87;76.54;92689.91;2071598;69;20140;-79
2024/03/16 02:16:09;;;;;;;5.55;3.10;;;;;;;8.93;77.22;92700.06;2071513;69;20598;-79
2024/03/16 02:18:35;;;;;;;6.25;3.20;;;;;;;9.15;76.39;92712.78;2071222;69;20168;-79
2024/03/16 02:21:03;;;;;;;6.22;3.70;;;;;;;9.19;75.86;92707.44;2067751;69;20615;-79
2024/03/16 02:23:31;;;;;;;7.30;3.42;;;;;;;9.25;76.05;92713.44;2071212;69;20669;-78
2024/03/16 02:25:58;;;;;;;6.50;3.30;;;;;;;9.31;75.78;92716.66;2071228;69;20615;-79
2024/03/16 02:28:23;;;;;;;8.18;3.15;;;;;;;9.36;75.25;92728.91;2071211;69;20148;-80
2024/03/16 02:34:38;;;;;;;7.60;3.22;;;;;;;9.31;74.94;92752.47;2071410;69;20193;-80
2024/03/16 02:37:04;;;;;;;6.00;3.05;;;;;;;9.30;75.57;92767.81;2065183;69;20164;-79
2024/03/16 02:39:34;;;;;;;6.72;2.95;;;;;;;9.26;76.17;92773.94;2071319;69;20172;-78
2024/03/16 02:42:04;;;;;;;4.22;3.20;;;;;;;9.00;76.98;92766.53;2071095;69;20162;-79
2024/03/16 02:44:30;;;;;;;6.82;3.05;;;;;;;9.00;76.88;92781.31;2071433;69;20179;-80
2024/03/16 02:46:59;;;;;;;6.60;3.00;;;;;;;9.24;76.21;92778.66;2071246;69;20156;-80
2024/03/16 02:49:28;;;;;;;5.38;2.60;;;;;;;9.39;74.40;92793.06;2068239;69;20207;-80
2024/03/16 02:51:54;;;;;;;6.90;3.00;;;;;;;9.40;75.29;92791.00;2067989;69;20224;-81
2024/03/16 02:54:19;;;;;;;7.78;3.00;;;;;;;9.36;75.97;92799.88;2071229;69;20239;-80
2024/03/16 02:56:45;;;;;;;5.88;3.50;;;;;;;9.40;75.52;92788.91;2067918;69;20153;-79
2024/03/16 02:59:12;;;;;;;6.85;3.08;;;;;;;9.34;76.35;92794.13;2067792;69;20600;-78
2024/03/16 03:01:38;;;;;;;4.47;2.80;;;;;;;9.41;76.50;92789.66;2071041;69;20156;-78
2024/03/16 03:04:06;;;;;;;6.93;3.28;;;;;;;9.43;76.34;92790.50;2071107;69;20151;-77
2024/03/16 03:06:32;;;;;;;4.97;3.17;;;;;;;9.49;76.53;92793.00;2070990;69;20139;-79
2024/03/16 03:08:58;;;;;;;7.18;2.92;;;;;;;9.30;77.40;92788.25;2071157;69;20191;-79
2024/03/16 03:11:27;;;;;;;5.10;2.90;;;;;;;9.40;77.16;92785.38;2071222;69;20149;-79
2024/03/16 03:13:53;;;;;;;3.17;2.83;;;;;;;9.43;76.55;92786.97;2071265;69;20136;-77
2024/03/16 03:16:19;;;;;;;5.38;2.83;;;;;;;9.20;78.23;92772.78;2071145;69;20180;-79
2024/03/16 03:18:50;;;;;;;3.22;2.17;;;;;;;9.33;77.94;92777.88;2071050;69;20492;-78
2024/03/16 03:21:16;;;;;;;6.53;1.92;;;;;;;9.44;76.57;92780.03;2071223;69;20207;-78
2024/03/16 03:23:42;;;;;;;4.53;1.70;;;;;;;9.42;78.02;92769.38;2071699;69;20277;-78
2024/03/16 03:26:09;;;;;;;2.78;1.42;;;;;;;9.34;78.00;92782.88;2071994;69;20151;-78
2024/03/16 03:28:35;;;;;;;2.72;1.02;;;;;;;9.34;77.64;92777.25;2068555;69;20155;-78
2024/03/16 03:31:06;;;;;;;1.83;1.30;;;;;;;9.34;77.62;92780.06;2072040;69;20145;-78
2024/03/16 03:33:32;;;;;;;2.17;1.10;;;;;;;9.09;78.23;92782.59;2068406;69;20172;-79
2024/03/16 03:35:59;;;;;;;3.13;1.77;;;;;;;8.99;79.63;92793.16;2068442;69;20578;-78
2024/03/16 03:38:26;;;;;;;6.28;2.05;;;;;;;9.07;79.69;92797.25;2071894;69;20501;-80
2024/03/16 03:40:52;;;;;;;4.85;2.00;;;;;;;9.02;79.29;92791.94;2071762;69;20298;-78
2024/03/16 03:43:19;;;;;;;2.15;1.50;;;;;;;9.06;78.85;92787.34;2071508;69;20126;-78
2024/03/16 03:50:57;;;;;;;2.00;0.77;;;;;;;9.15;78.62;92785.81;2071766;69;20140;-78
2024/03/16 03:53:25;;;;;;;2.17;1.02;;;;;;;9.20;78.22;92787.56;2071755;69;20156;-78
2024/03/16 03:55:51;;;;;;;2.72;0.98;;;;;;;9.22;77.65;92782.09;2071680;69;20196;-78
2024/03/16 03:58:20;;;;;;;0.80;0.80;;;;;;;9.20;78.29;92776.31;2072111;69;20237;-77
2024/03/16 04:04:34;;;;;;;3.20;1.38;;;;;;;8.96;78.50;92772.63;2071663;69;20130;-79
2024/03/16 04:07:00;;;;;;;2.40;1.38;;;;;;;9.02;78.15;92761.78;2071590;69;20129;-77
2024/03/16 04:09:26;;;;;;;3.20;1.35;;;;;;;8.99;77.71;92759.47;2071765;69;20179;-78
2024/03/16 04:11:51;;;;;;;2.90;1.70;;;;;;;9.12;77.83;92784.22;2071682;69;20543;-77
2024/03/16 04:14:17;;;;;;;2.33;1.27;;;;;;;9.06;78.34;92787.34;2071743;69;20245;-80
2024/03/16 04:16:43;;;;;;;2.45;1.60;;;;;;;9.01;78.40;92785.59;2071401;69;20148;-78
2024/03/16 04:19:09;;;;;;;2.70;1.50;;;;;;;9.13;77.71;92794.09;2071527;69;20484;-77
2024/03/16 04:21:36;;;;;;;2.03;1.52;;;;;;;8.98;77.95;92780.44;2071606;69;20149;-76
2024/03/16 04:24:02;;;;;;;3.85;1.50;;;;;;;8.99;78.60;92779.13;2068268;69;20148;-78
2024/03/16 04:26:28;;;;;;;3.15;1.42;;;;;;;9.04;78.24;92792.09;2071781;69;20244;-76
2024/03/16 04:28:54;;;;;;;2.40;1.50;;;;;;;9.05;78.50;92788.69;2068428;69;20632;-77
2024/03/16 04:31:20;;;;;;;2.95;1.80;;;;;;;9.00;78.52;92783.38;2071697;69;20172;-77
2024/03/16 04:33:45;;;;;;;3.38;2.03;;;;;;;9.02;78.24;92777.91;2071575;69;20148;-78
2024/03/16 04:36:12;;;;;;;2.00;1.35;;;;;;;8.94;78.84;92778.09;2071760;69;20155;-79
2024/03/16 04:38:38;;;;;;;3.47;1.42;;;;;;;8.91;78.01;92768.06;2071769;69;20139;-78
2024/03/16 04:41:04;;;;;;;2.22;1.50;;;;;;;8.90;78.28;92769.41;2068252;69;20167;-79
2024/03/16 04:43:30;;;;;;;2.95;2.00;;;;;;;8.86;77.82;92772.66;2071565;69;20600;-78
2024/03/16 04:45:56;;;;;;;4.63;2.40;;;;;;;8.76;77.73;92777.59;2071709;69;20243;-79
2024/03/16 04:48:21;;;;;;;4.22;1.70;;;;;;;8.66;77.92;92779.72;2068313;69;20150;-79
2024/03/16 04:50:47;;;;;;;3.22;1.70;;;;;;;8.61;78.14;92787.13;2071491;69;20156;-80
2024/03/16 04:53:13;;;;;;;2.13;1.30;;;;;;;8.62;78.53;92782.22;2071666;69;20156;-81
2024/03/16 04:55:39;;;;;;;2.72;1.88;;;;;;;8.50;78.92;92787.00;2071554;69;20601;-78
2024/03/16 04:58:07;;;;;;;5.13;2.78;;;;;;;8.44;78.60;92784.50;2071655;69;20144;-80
2024/03/16 05:00:34;;;;;;;8.40;2.53;;;;;;;8.39;79.44;92771.53;2071644;69;20139;-78
2024/03/16 05:03:00;;;;;;;3.22;2.38;;;;;;;8.46;78.90;92783.91;2071451;69;20155;-80
2024/03/16 05:05:26;;;;;;;4.13;2.90;;;;;;;8.47;79.73;92785.38;2071549;69;20175;-79
2024/03/16 05:07:51;;;;;;;4.05;2.20;;;;;;;8.45;79.59;92777.56;2071887;69;20194;-79
2024/03/16 05:10:17;;;;;;;4.50;1.83;;;;;;;8.44;79.42;92786.59;2068429;69;20129;-79
2024/03/16 05:12:45;;;;;;;4.38;2.20;;;;;;;8.32;79.46;92787.16;2071438;69;20648;-79
2024/03/16 05:15:11;;;;;;;3.78;2.30;;;;;;;8.09;81.47;92781.31;2071760;69;20140;-79
2024/03/16 05:17:39;;;;;;;7.88;2.95;;;;;;;8.08;81.17;92768.63;2071671;69;20229;-79
2024/03/16 05:20:06;;;;;;;6.28;3.20;;;;;;;8.28;80.42;92772.84;2071845;69;20144;-78
2024/03/16 05:22:32;;;;;;;9.85;4.43;;;;;;;8.18;80.68;92777.75;2071757;69;20152;-80
2024/03/16 05:24:57;;;;;;;8.32;4.03;;;;;;;8.08;80.45;92774.25;2071789;69;20598;-79
2024/03/16 05:27:23;;;;;;;4.88;3.38;;;;;;;8.15;80.04;92757.25;2068485;69;20156;-79
2024/03/16 05:29:49;;;;;;;7.97;4.35;;;;;;;8.22;79.39;92744.38;2068519;69;20156;-79
2024/03/16 05:32:14;;;;;;;13.05;4.32;;;;;;;8.23;79.94;92767.56;2071676;69;20140;-79
2024/03/16 05:34:41;;;;;;;8.70;3.97;;;;;;;8.27;79.17;92777.00;2071702;69;20202;-79
2024/03/16 05:40:55;;;;;;;6.03;3.78;;;;;;;8.20;79.43;92791.94;2071700;69;20567;-79
2024/03/16 05:43:21;;;;;;;5.78;2.80;;;;;;;8.24;79.42;92800.59;2071690;69;20159;-79
2024/03/16 05:49:34;;;;;;;17.60;10.57;;;;;;;8.09;79.90;92787.66;2072594;69;20131;-79
2024/03/16 05:52:00;;;;;;;13.40;6.28;;;;;;;8.23;80.38;92795.59;2068477;69;20152;-79
2024/03/16 05:54:27;;;;;;;14.25;6.78;;;;;;;8.30;79.95;92792.63;2071747;69;20146;-79
2024/03/16 05:56:52;;;;;;;12.65;5.78;;;;;;;8.30;79.67;92789.84;2071575;69;20172;-79
2024/03/16 05:59:18;;;;;;;9.80;5.60;;;;;;;8.31;79.38;92787.75;2071692;69;20202;-80
2024/03/16 06:01:45;;;;;;;14.90;9.65;;;;;;;8.07;80.71;92792.41;2068306;69;20172;-79
2024/03/16 06:04:10;;;;;;;12.63;6.80;;;;;;;8.34;79.95;92795.72;2071753;69;20155;-79
2024/03/16 06:06:36;;;;;;;10.52;5.95;;;;;;;8.39;80.02;92793.97;2071746;69;20164;-79
2024/03/16 06:09:01;;;;;;;9.50;5.93;;;;;;;8.26;79.19;92791.63;2071673;69;20151;-79
2024/03/16 06:11:27;;;;;;;7.68;5.68;;;;;;;8.44;79.26;92812.56;2068109;69;20150;-80
2024/03/16 06:13:53;;;;;;;8.10;5.28;;;;;;;8.52;79.01;92806.75;2071475;69;20132;-79
2024/03/16 06:16:21;;;;;;;7.88;5.20;;;;;;;8.59;79.23;92815.03;2071588;69;20159;-79
2024/03/16 06:18:48;;;;;;;8.55;5.30;;;;;;;8.50;80.04;92818.59;2068192;69;20237;-79
2024/03/16 06:21:14;;;;;;;6.88;4.43;;;;;;;8.72;78.59;92825.03;2071548;69;20177;-79
2024/03/16 06:23:39;;;;;;;9.43;5.63;;;;;;;8.63;77.90;92817.38;2071535;69;20142;-79
2024/03/16 06:26:06;;;;;;;3.95;2.95;;;;;;;8.55;78.91;92825.97;2071830;69;20162;-79
2024/03/16 06:28:36;;;;;;;11.57;4.05;;;;;;;8.67;78.91;92828.88;2071677;69;20504;-79
2024/03/16 06:31:08;;;;;;;12.32;6.28;;;;;;;8.76;78.68;92824.56;2068368;69;20245;-79
2024/03/16 06:33:34;;;;;;;11.73;7.38;;;;;;;8.79;79.00;92831.78;2071381;69;20205;-79
2024/03/16 06:36:00;;;;;;;14.00;7.88;;;;;;;8.85;78.24;92840.66;2071342;69;20147;-79
2024/03/16 06:38:26;;;;;;;15.13;8.98;;;;;;;8.97;79.03;92846.34;2071413;69;20164;-78
2024/03/16 06:40:52;;;;;;;11.32;8.75;;;;;;;9.03;77.80;92849.59;2071524;69;20184;-78
2024/03/16 06:43:17;;;;;;;10.85;6.68;;;;;;;8.92;77.95;92850.94;2071019;69;20155;-79
2024/03/16 06:45:43;;;;;;;12.32;7.00;;;;;;;8.74;79.22;92844.06;2071476;69;20164;-79
2024/03/16 06:48:09;;;;;;;18.35;12.40;;;;;;;8.83;79.33;92844.03;2071209;69;20132;-79
2024/03/16 06:50:36;;;;;;;14.52;9.77;;;;;;;8.91;78.83;92838.97;2071191;69;20164;-79
2024/03/16 06:53:02;;;;;;;15.13;9.80;;;;;;;9.08;78.39;92842.91;2067944;69;20225;-78
2024/03/16 06:55:28;;;;;;;10.52;7.20;;;;;;;8.80;79.54;92833.28;2071435;69;20515;-80
2024/03/16 06:57:54;;;;;;;11.52;7.68;;;;;;;9.15;79.23;92848.34;2071746;69;20160;-80
2024/03/16 07:00:19;;;;;;;12.40;8.05;;;;;;;9.31;78.63;92843.09;2072226;69;20132;-82
2024/03/16 07:02:45;;;;;;;12.13;6.90;;;;;;;9.58;79.00;92848.41;2071947;69;20221;-83
2024/03/16 07:05:11;;;;;;;8.68;5.78;;;;;;;9.72;78.48;92845.81;2071956;69;20156;-79
2024/03/16 07:07:36;;;;;;;8.73;6.35;;;;;;;9.48;78.75;92856.13;2071818;69;20167;-79
2024/03/16 07:10:05;;;;;;;12.45;6.20;;;;;;;9.58;77.94;92844.88;2071756;69;20141;-79
2024/03/16 07:12:32;;;;;;;8.70;5.78;;;;;;;9.51;78.78;92852.13;2071929;69;20140;-79
2024/03/16 07:14:57;;;;;;;6.45;5.10;;;;;;;9.69;77.71;92847.00;2071949;69;20137;-79
2024/03/16 07:17:26;;;;;;;9.13;6.00;;;;;;;9.66;76.91;92856.63;2072003;69;20155;-80
2024/03/16 07:19:53;;;;;;;16.67;8.18;;;;;;;9.60;77.41;92864.66;2072002;69;20132;-77
2024/03/16 07:22:18;;;;;;;13.63;8.02;;;;;;;9.79;77.51;92869.41;2068674;69;20138;-77
2024/03/16 07:24:44;;;;;;;9.30;6.38;;;;;;;9.87;76.86;92867.88;2068507;69;20524;-78
2024/03/16 07:27:11;;;;;;;9.95;5.90;;;;;;;9.98;75.33;92874.16;2071827;69;20136;-78
2024/03/16 07:29:36;;;;;;;8.57;6.15;;;;;;;10.06;76.00;92883.13;2071944;69;20201;-80
2024/03/16 07:32:02;;;;;;;4.85;3.30;;;;;;;9.92;75.79;92864.00;2068364;69;20149;-77
2024/03/16 07:34:28;;;;;;;5.38;3.45;;;;;;;9.92;76.76;92866.81;2071976;69;20140;-78
2024/03/16 07:36:53;;;;;;;5.57;3.22;;;;;;;10.42;73.38;92879.16;2072459;69;20229;-77
2024/03/16 07:39:21;;;;;;;7.65;4.53;;;;;;;9.99;75.91;92870.00;2072145;69;20168;-78
2024/03/16 07:41:46;;;;;;;6.60;4.20;;;;;;;10.43;74.79;92875.75;2071968;69;20656;-78
2024/03/16 07:44:12;;;;;;;5.25;3.50;;;;;;;10.80;73.31;92880.13;2065724;69;20148;-78
2024/03/16 07:46:39;;;;;;;5.90;3.83;;;;;;;11.07;72.17;92886.06;2071846;69;20693;-75
2024/03/16 07:49:04;;;;;;;8.02;3.97;;;;;;;11.33;72.36;92889.03;2068449;69;20149;-78
2024/03/16 07:51:30;;;;;;;6.32;3.97;;;;;;;11.18;72.85;92887.44;2071482;69;20214;-79
2024/03/16 07:53:57;;;;;;;7.57;4.38;;;;;;;10.40;74.52;92909.97;2071638;69;20144;-78
2024/03/16 07:56:25;;;;;;;6.53;4.68;;;;;;;10.64;74.99;92911.56;2071884;69;20174;-78
2024/03/16 07:58:50;;;;;;;9.65;4.38;;;;;;;10.93;74.03;92911.25;2071743;69;20590;-77
2024/03/16 08:01:16;;;;;;;6.38;3.67;;;;;;;10.80;74.21;92916.75;2071787;69;20160;-78
2024/03/16 08:03:42;;;;;;;7.90;4.63;;;;;;;10.90;74.73;92923.00;2071678;69;20171;-78
2024/03/16 08:06:08;;;;;;;9.65;5.30;;;;;;;10.55;74.70;92900.41;2071568;69;20209;-74
2024/03/16 08:08:34;;;;;;;9.80;6.50;;;;;;;10.69;73.85;92918.91;2071601;69;20589;-78
2024/03/16 08:11:00;;;;;;;11.63;5.10;;;;;;;10.83;74.40;92924.72;2071890;69;20151;-78
2024/03/16 08:13:26;;;;;;;6.32;3.28;;;;;;;11.64;73.78;92929.00;2071620;69;20143;-78
2024/03/16 08:15:52;;;;;;;4.05;2.78;;;;;;;12.27;70.83;92929.19;2068286;69;20152;-78
2024/03/16 08:18:18;;;;;;;2.50;1.98;;;;;;;11.97;68.25;92933.06;2068379;69;20179;-78
2024/03/16 08:20:43;;;;;;;3.10;1.77;;;;;;;12.33;67.41;92929.56;2071682;69;20147;-77
2024/03/16 08:23:09;;;;;;;6.05;2.00;;;;;;;12.45;66.01;92935.16;2071716;69;20152;-75
2024/03/16 08:25:34;;;;;;;3.70;1.42;;;;;;;11.50;66.24;92924.56;2071457;69;20190;-77
2024/03/16 08:28:00;;;;;;;4.60;2.42;;;;;;;12.04;66.46;92938.44;2067878;69;20689;-75
2024/03/16 08:30:26;;;;;;;3.60;2.13;;;;;;;12.50;65.95;92930.47;2068231;69;20144;-75
2024/03/16 08:32:52;;;;;;;3.30;1.80;;;;;;;12.12;67.01;92927.63;2071518;69;20148;-76
2024/03/16 08:35:18;;;;;;;4.63;2.13;;;;;;;12.09;67.33;92934.50;2071621;69;20184;-76
2024/03/16 08:37:44;;;;;;;3.90;2.03;;;;;;;12.16;66.40;92938.41;2071737;69;20152;-75
2024/03/16 08:40:12;;;;;;;2.97;1.63;;;;;;;12.00;66.61;92943.81;2071590;69;20140;-76
2024/03/16 08:42:42;;;;;;;3.20;1.38;;;;;;;12.23;66.22;92937.41;2071468;69;20152;-76
2024/03/16 08:45:09;;;;;;;2.33;1.50;;;;;;;11.74;66.35;92940.16;2071787;69;20151;-76
2024/03/16 08:47:35;;;;;;;1.27;0.90;;;;;;;11.68;66.60;92945.41;2068291;69;20224;-76
2024/03/16 08:50:00;;;;;;;2.03;1.10;;;;;;;10.90;68.25;92935.03;2071705;69;20181;-75
2024/03/16 08:52:26;;;;;;;2.95;1.13;;;;;;;11.31;69.77;92934.72;2071832;69;20172;-75
2024/03/16 08:54:55;;;;;;;1.30;0.90;;;;;;;11.75;67.21;92935.97;2071409;69;20243;-76
2024/03/16 08:57:26;;;;;;;3.80;1.27;;;;;;;11.08;69.04;92943.13;2068133;69;20152;-75
2024/03/16 08:59:52;;;;;;;2.08;1.00;;;;;;;11.49;67.49;92943.56;2071580;69;20144;-74
2024/03/16 09:02:24;;;;;;;1.20;1.00;;;;;;;12.10;67.31;92938.06;2071376;69;20488;-76
2024/03/16 09:04:56;;;;;;;2.10;0.97;;;;;;;13.12;65.57;92938.19;2071795;69;20140;-74
2024/03/16 09:07:23;;;;;;;1.33;1.00;;;;;;;13.97;63.62;92939.19;2071756;69;20144;-75
2024/03/16 09:09:49;;;;;;;1.50;0.90;;;;;;;15.02;61.79;92933.81;2071720;69;20148;-75
2024/03/16 09:12:16;;;;;;;1.70;1.10;;;;;;;15.41;60.07;92922.19;2071467;69;20148;-77
2024/03/16 09:14:41;;;;;;;1.15;0.93;;;;;;;14.77;57.53;92924.16;2071589;69;20623;-75
2024/03/16 09:17:07;;;;;;;1.88;1.33;;;;;;;15.12;58.28;92929.38;2071547;69;20160;-77
2024/03/16 09:19:33;;;;;;;1.10;1.00;;;;;;;15.23;57.48;92931.31;2071585;69;20601;-77
2024/03/16 09:21:59;;;;;;;1.25;0.95;;;;;;;15.99;55.91;92935.53;2068348;69;20586;-77
2024/03/16 09:24:25;;;;;;;2.05;1.25;;;;;;;15.77;55.18;92943.03;2071655;69;20222;-78
2024/03/16 09:26:55;;;;;;;3.33;1.15;;;;;;;15.62;56.70;92940.88;2071873;69;20144;-79
2024/03/16 09:29:20;;;;;;;2.95;1.05;;;;;;;16.03;56.27;92932.13;2068946;69;20218;-74
2024/03/16 09:31:46;;;;;;;1.60;1.10;;;;;;;16.09;55.00;92934.50;2071556;69;20144;-77
2024/03/16 09:34:12;;;;;;;2.42;1.15;;;;;;;16.06;54.11;92936.53;2071557;69;20168;-76
2024/03/16 09:36:38;;;;;;;1.52;1.15;;;;;;;16.21;53.65;92935.03;2071599;69;20523;-73
2024/03/16 09:39:13;;;;;;;2.03;1.50;;;;;;;15.95;53.00;92937.44;2068160;69;20144;-73
2024/03/16 09:41:39;;;;;;;1.55;1.02;;;;;;;16.63;53.50;92935.38;2071247;69;20143;-74
2024/03/16 09:44:13;;;;;;;3.15;1.20;;;;;;;14.91;55.94;92938.28;2071554;69;20225;-75
2024/03/16 09:46:43;;;;;;;1.40;1.00;;;;;;;15.64;54.71;92935.34;2071371;69;20132;-74
2024/03/16 09:49:15;;;;;;;1.10;1.00;;;;;;;16.35;53.14;92935.63;2071512;69;20144;-73
2024/03/16 09:51:41;;;;;;;2.00;1.10;;;;;;;15.19;54.24;92941.72;2071653;69;20148;-73
2024/03/16 09:54:09;;;;;;;2.13;1.10;;;;;;;15.58;54.14;92938.59;2071524;69;20263;-77
2024/03/16 09:56:38;;;;;;;1.60;1.30;;;;;;;14.89;56.94;92933.25;2067961;69;20148;-74
2024/03/16 09:59:14;;;;;;;2.65;1.17;;;;;;;14.62;56.65;92930.50;2071297;69;20570;-77
2024/03/16 10:01:40;;;;;;;1.58;1.23;;;;;;;15.82;54.20;92936.16;2071273;69;20139;-76
2024/03/16 10:04:07;;;;;;;1.98;1.30;;;;;;;16.36;53.08;92939.25;2068192;69;20156;-76
2024/03/16 10:06:32;;;;;;;1.60;1.20;;;;;;;15.26;52.87;92943.50;2071505;69;20155;-80
2024/03/16 10:09:15;;;;;;;3.35;1.52;;;;;;;15.28;53.78;92937.91;2068315;69;20235;-78
2024/03/16 10:11:44;;;;;;;3.10;1.60;;;;;;;15.93;52.93;92940.19;2068172;69;20139;-76
2024/03/16 10:14:11;;;;;;;2.30;1.20;;;;;;;15.88;52.95;92942.09;2071479;69;20256;-74
2024/03/16 10:16:44;;;;;;;2.15;0.90;;;;;;;16.19;51.54;92938.53;2071439;69;20131;-78
2024/03/16 10:19:10;;;;;;;;;;;;;;;16.42;50.85;92939.50;2071583;69;20596;-77
2024/03/16 10:21:36;;;;;;;0.70;0.60;;;;;;;15.86;51.53;92936.34;2071485;69;20102;-75
2024/03/16 10:24:02;;;;;;;0.73;0.60;;;;;;;16.02;51.61;92934.22;2071412;69;20183;-79
2024/03/16 10:26:30;;;;;;;2.20;1.48;;;;;;;16.07;51.43;92932.28;2071724;69;20159;-77
2024/03/16 10:29:01;;;;;;;3.92;2.90;;;;;;;16.65;50.21;92924.13;2071435;69;20156;-77
2024/03/16 10:31:29;;;;;;;1.02;0.82;;;;;;;17.28;49.77;92921.75;2071358;69;20588;-78
2024/03/16 10:33:59;;;;;;;1.73;1.08;;;;;;;19.03;48.23;92921.69;2071343;69;20141;-78
2024/03/16 10:36:26;;;;;;;1.30;0.70;;;;;;;18.35;46.04;92911.47;2071393;69;20660;-75
2024/03/16 10:38:54;;;;;;;1.00;0.80;;;;;;;21.21;44.60;92915.09;2071120;69;20175;-76
2024/03/16 10:41:20;;;;;;;2.13;0.85;;;;;;;22.17;43.70;92911.59;2070821;69;20580;-75
2024/03/16 10:43:46;;;;;;;2.55;2.10;;;;;;;19.67;43.26;92913.03;2071205;69;20235;-74
2024/03/16 10:46:15;;;;;;;1.50;0.88;;;;;;;19.89;41.76;92909.38;2071321;69;20224;-75
2024/03/16 10:48:44;;;;;;;2.15;1.17;;;;;;;19.30;44.24;92905.41;2071301;69;20544;-76
2024/03/16 10:51:15;;;;;;;1.10;0.90;;;;;;;19.96;43.40;92908.16;2071349;69;20728;-75
2024/03/16 10:53:41;;;;;;;4.53;1.20;;;;;;;23.08;39.91;92904.06;2071020;69;20148;-76
2024/03/16 10:56:07;;;;;;;2.35;0.90;;;;;;;23.81;38.86;92904.53;2071285;69;20172;-76
2024/03/16 10:58:33;;;;;;;0.85;0.70;;;;;;;25.05;36.26;92916.88;2071258;69;20148;-73
2024/03/16 11:04:52;;;;;;;1.27;0.60;;;;;;;23.51;37.62;92914.13;2071405;69;20190;-76
2024/03/16 11:11:08;;;;;;;0.70;0.50;;;;;;;20.06;40.74;92914.88;2071252;69;20206;-78
2024/03/16 11:13:35;;;;;;;0.50;0.50;;;;;;;23.58;37.76;92918.53;2071136;69;20160;-72
2024/03/16 11:16:27;;;;;;;0.60;0.45;;;;;;;22.06;37.95;92916.38;2067750;69;20539;-75
2024/03/16 11:18:58;;;;;;;0.30;0.30;;;;;;;21.64;36.84;92916.88;2067823;69;20162;-75
2024/03/16 11:21:26;;;;;;;0.32;0.32;;;;;;;23.79;35.38;92913.84;2071583;69;20608;-75
2024/03/16 11:23:53;;;;;;;0.20;0.20;;;;;;;23.20;34.95;92912.88;2071054;69;20210;-76
2024/03/16 11:30:19;;;;;;;0.20;0.10;;;;;;;20.49;36.27;92923.97;2071132;69;20243;-77
2024/03/16 11:32:45;;;;;;;0.10;0.10;;;;;;;20.56;37.55;92917.72;2071245;69;20154;-74
2024/03/16 11:35:13;;;;;;;0.75;0.40;;;;;;;19.60;38.67;92905.66;2071183;69;20149;-75
2024/03/16 11:37:38;;;;;;;1.30;1.20;;;;;;;18.67;38.84;92906.91;2071243;69;20202;-74
2024/03/16 11:40:04;;;;;;;20.20;14.15;;;;;;;19.84;38.15;92902.81;2071160;69;20156;-76
2024/03/16 11:42:30;;;;;;;1.38;1.27;;;;;;;19.14;37.60;92902.75;2071084;69;20148;-75
2024/03/16 11:44:56;;;;;;;1.45;0.47;;;;;;;19.35;37.62;92907.00;2071638;69;20144;-77
2024/03/16 11:47:23;;;;;;;0.30;0.30;;;;;;;17.79;38.80;92905.91;2068378;69;20148;-74
2024/03/16 11:49:48;;;;;;;0.88;0.30;;;;;;;19.03;36.86;92915.25;2068274;69;20154;-76
2024/03/16 11:52:16;;;;;;;0.15;0.15;;;;;;;21.52;35.90;92917.31;2071608;69;20516;-74
2024/03/16 11:54:47;;;;;;;0.40;0.30;;;;;;;21.82;34.42;92919.44;2071654;69;20253;-74
2024/03/16 11:57:14;;;;;;;0.32;0.30;;;;;;;19.31;37.10;92906.88;2068223;69;20239;-76
2024/03/16 11:59:40;;;;;;;0.20;0.20;;;;;;;18.98;37.71;92902.25;2071683;69;20239;-76
2024/03/16 12:02:07;;;;;;;0.32;0.15;;;;;;;19.14;38.43;92899.91;2071493;69;20136;-75
2024/03/16 12:04:34;;;;;;;0.20;0.20;;;;;;;22.55;33.48;92912.41;2071467;69;20148;-75
2024/03/16 12:07:00;;;;;;;0.20;0.13;;;;;;;24.64;32.20;92921.47;2071534;69;20564;-77
2024/03/16 12:09:31;;;;;;;0.45;0.10;;;;;;;27.49;26.55;92923.41;2065573;69;20144;-77
2024/03/16 12:11:58;;;;;;;0.20;0.10;;;;;;;31.00;25.58;92918.59;2068228;69;20156;-78
2024/03/16 12:14:24;;;;;;;0.20;0.03;;;;;;;28.29;25.26;92923.38;2071535;69;20236;-77
2024/03/16 12:16:51;;;;;;;0.17;0.17;;;;;;;26.23;28.73;92920.03;2071512;69;20206;-76